11°C
Woerden, The Nederlands
Taal:  Nederlands
Updated25/09/2018 21:30 
 
Station Historical Data
 
Daily Summary for September 25, 2018 Units:  Metric    English   Both
Next Day »
Daily Weekly Monthly Yearly Custom
  Current: High: Low: Average:
Temperature: 10.8 °C 16.5 °C 6.9 °C 11.7 °C
Dew Point: 6.6 °C 9.2 °C 4.7 °C 6.4 °C
Humidity: 75% 89% 47% 72%
Wind Speed: 5.6km/h 14.8km/h 0.0km/h 4.5km/h
Wind Gust: 2.7km/h 8.8km/h - -
WindSouth - - SSE
Pressure: 1036.1 hPa 1038.7 hPa 1036.0 hPa -
Precipitation: 1.0 mm      
Historical Graphs
 
 
Tabular Data for September 25, 2018
Time Temperature Dew Point Pressure Wind Wind Speed Wind Gust Humidity Rainfall Rate (Hourly) solar Conditions
00:04 9.6 °C 6.3 °C 1036.6 hPa Calm     80% 0.0 mm 0.00 W/m2 RA
00:09 9.4 °C 6.2 °C 1036.7 hPa Calm     80% 0.0 mm 0.00 W/m2 RA
00:14 9.3 °C 6.2 °C 1036.7 hPa Calm     81% 0.0 mm 0.00 W/m2 CLR
00:19 9.2 °C 6.1 °C 1036.8 hPa Calm     81% 0.0 mm 0.00 W/m2 CLR
00:24 9.1 °C 6.0 °C 1036.8 hPa NNE 3.2 km/h 0.3 km/h 81% 0.0 mm 0.00 W/m2 CLR
00:29 8.9 °C 5.8 °C 1036.8 hPa NNE 1.9 km/h 0.6 km/h 81% 0.0 mm 0.00 W/m2 CLR
00:34 8.8 °C 5.9 °C 1036.8 hPa NNE 1.9 km/h 0.3 km/h 82% 0.0 mm 0.00 W/m2 CLR
00:38 8.8 °C 5.9 °C 1036.8 hPa Calm     82% 0.0 mm 0.00 W/m2 CLR
00:43 8.7 °C 5.8 °C 1036.8 hPa NNE 1.9 km/h   82% 0.0 mm 0.00 W/m2 CLR
00:49 8.6 °C 5.8 °C 1036.8 hPa NNE 1.9 km/h   83% 0.0 mm 0.00 W/m2 CLR
00:54 8.5 °C 5.8 °C 1036.8 hPa Calm     83% 0.0 mm 0.00 W/m2 CLR
00:59 8.4 °C 5.7 °C 1036.9 hPa NNE 1.6 km/h   83% 0.0 mm 0.00 W/m2 CLR
01:04 8.3 °C 5.8 °C 1037.0 hPa NNE 3.2 km/h 0.2 km/h 84% 0.0 mm 0.00 W/m2 CLR
01:09 8.3 °C 5.7 °C 1037.0 hPa NNE 3.7 km/h 0.5 km/h 84% 0.0 mm 0.00 W/m2 CLR
01:14 8.3 °C 5.9 °C 1037.0 hPa NNE 3.7 km/h 0.6 km/h 85% 0.0 mm 0.00 W/m2 CLR
01:19 8.3 °C 5.9 °C 1036.9 hPa NNE 3.7 km/h 0.5 km/h 85% 0.2 mm 0.00 W/m2 RA
01:23 8.3 °C 5.9 °C 1036.9 hPa NNE 1.9 km/h 0.3 km/h 85% 0.2 mm 0.00 W/m2 RA
01:28 8.4 °C 6.2 °C 1036.8 hPa NNE 1.9 km/h 0.2 km/h 86% 0.2 mm 0.00 W/m2 RA
01:33 8.3 °C 6.1 °C 1036.9 hPa NNE 1.9 km/h 0.5 km/h 86% 0.2 mm 0.00 W/m2
01:39 8.3 °C 6.1 °C 1036.8 hPa NNE 1.9 km/h 0.3 km/h 86% 0.2 mm 0.00 W/m2
01:44 8.3 °C 6.1 °C 1036.8 hPa Calm     86% 0.2 mm 0.00 W/m2
01:49 8.3 °C 6.1 °C 1036.8 hPa Calm     86% 0.2 mm 0.00 W/m2
01:54 8.3 °C 6.1 °C 1036.8 hPa Calm     86% 0.2 mm 0.00 W/m2
01:59 8.3 °C 6.1 °C 1036.9 hPa Calm     86% 0.2 mm 0.00 W/m2
02:03 8.3 °C 6.1 °C 1036.9 hPa Calm     86% 0.2 mm 0.00 W/m2
02:08 8.4 °C 6.2 °C 1036.9 hPa Calm     86% 0.2 mm 0.00 W/m2
02:14 8.3 °C 6.3 °C 1037.0 hPa NNE 3.2 km/h 0.2 km/h 87% 0.2 mm 0.00 W/m2
02:19 8.3 °C 6.3 °C 1037.1 hPa NNE 3.7 km/h 0.6 km/h 87% 0.4 mm 0.00 W/m2 RA
02:24 8.4 °C 6.3 °C 1037.0 hPa NNE 3.7 km/h 1.0 km/h 87% 0.6 mm 0.00 W/m2 RA
02:29 8.4 °C 6.3 °C 1037.0 hPa NNE 3.7 km/h 0.5 km/h 87% 0.6 mm 0.00 W/m2 RA
02:34 8.5 °C 6.4 °C 1036.9 hPa NNE 3.2 km/h   87% 0.6 mm 0.00 W/m2 RA
02:39 8.6 °C 6.5 °C 1036.9 hPa NNE 3.7 km/h 0.8 km/h 87% 0.6 mm 0.00 W/m2 RA
02:44 8.6 °C 6.5 °C 1036.9 hPa NNE 3.7 km/h 0.6 km/h 87% 0.6 mm 0.00 W/m2
02:49 8.6 °C 6.5 °C 1036.9 hPa NNE 1.9 km/h   87% 0.6 mm 0.00 W/m2
02:54 8.5 °C 6.4 °C 1037.1 hPa NNE 1.9 km/h   87% 0.6 mm 0.00 W/m2
02:59 8.4 °C 6.3 °C 1037.0 hPa NNE 1.9 km/h   87% 0.6 mm 0.00 W/m2
03:04 8.4 °C 6.3 °C 1036.9 hPa NNE 1.9 km/h 0.6 km/h 87% 0.6 mm 0.00 W/m2
03:09 8.2 °C 6.2 °C 1036.9 hPa NNE 1.9 km/h 1.0 km/h 87% 0.6 mm 0.00 W/m2
03:13 8.1 °C 6.2 °C 1036.9 hPa NNE 1.9 km/h 0.5 km/h 88% 0.6 mm 0.00 W/m2
03:18 7.9 °C 6.0 °C 1036.8 hPa NNE 3.7 km/h 0.5 km/h 88% 0.6 mm 0.00 W/m2
03:24 7.8 °C 5.9 °C 1036.8 hPa NNE 3.7 km/h 0.5 km/h 88% 0.6 mm 0.00 W/m2
03:28 7.7 °C 5.8 °C 1036.9 hPa Calm     88% 0.6 mm 0.00 W/m2
03:33 7.7 °C 5.8 °C 1036.8 hPa NE 1.9 km/h 0.5 km/h 88% 0.6 mm 0.00 W/m2
03:38 7.6 °C 5.7 °C 1036.8 hPa SE 3.7 km/h 1.3 km/h 88% 0.4 mm 0.00 W/m2
03:44 7.6 °C 5.8 °C 1036.8 hPa SE 3.7 km/h 1.9 km/h 89% 0.2 mm 0.00 W/m2
03:49 7.6 °C 5.9 °C 1036.8 hPa SE 4.8 km/h 2.3 km/h 89% 0.0 mm 0.00 W/m2 CLR
03:54 7.7 °C 5.9 °C 1036.8 hPa SE 3.7 km/h 2.1 km/h 89% 0.0 mm 0.00 W/m2 CLR
03:59 7.6 °C 5.8 °C 1036.8 hPa SE 3.7 km/h 1.1 km/h 89% 0.0 mm 0.00 W/m2 CLR
04:04 7.7 °C 6.0 °C 1036.8 hPa SE 3.7 km/h 1.3 km/h 89% 0.0 mm 0.00 W/m2 CLR
04:07 7.7 °C 6.0 °C 1036.8 hPa SE 3.7 km/h 1.1 km/h 89% 0.0 mm 0.00 W/m2 CLR
04:13 7.7 °C 5.9 °C 1036.9 hPa Calm     89% 0.0 mm 0.00 W/m2 CLR
04:18 7.6 °C 5.8 °C 1036.9 hPa Calm     89% 0.0 mm 0.00 W/m2 CLR
04:24 7.6 °C 5.7 °C 1036.9 hPa Calm     88% 0.0 mm 0.00 W/m2 CLR
04:29 7.6 °C 5.8 °C 1037.1 hPa Calm     89% 0.0 mm 0.00 W/m2 CLR
04:34 7.5 °C 5.7 °C 1037.0 hPa Calm     88% 0.0 mm 0.00 W/m2 CLR
04:39 7.4 °C 5.6 °C 1037.1 hPa Calm     88% 0.0 mm 0.00 W/m2 CLR
04:43 7.5 °C 5.8 °C 1037.1 hPa Calm     89% 0.0 mm 0.00 W/m2 CLR
04:49 7.4 °C 5.6 °C 1037.1 hPa Calm     88% 0.0 mm 0.00 W/m2 CLR
04:54 7.4 °C 5.7 °C 1037.1 hPa Calm     89% 0.0 mm 0.00 W/m2 CLR
04:59 7.5 °C 5.8 °C 1037.1 hPa Calm     89% 0.0 mm 0.00 W/m2 CLR
05:04 7.4 °C 5.7 °C 1037.0 hPa Calm     89% 0.0 mm 0.00 W/m2 CLR
05:09 7.3 °C 5.7 °C 1037.1 hPa Calm     89% 0.0 mm 0.00 W/m2 CLR
05:13 7.3 °C 5.6 °C 1037.1 hPa Calm     89% 0.0 mm 0.00 W/m2 CLR
05:19 7.3 °C 5.7 °C 1036.9 hPa SE 1.6 km/h   89% 0.0 mm 0.00 W/m2 CLR
05:23 7.4 °C 5.7 °C 1036.9 hPa Calm     89% 0.0 mm 0.00 W/m2 CLR
05:29 7.6 °C 5.8 °C 1036.8 hPa Calm     89% 0.0 mm 0.00 W/m2 CLR
05:34 7.5 °C 5.7 °C 1036.8 hPa Calm     88% 0.0 mm 0.00 W/m2 CLR
05:39 7.4 °C 5.6 °C 1036.8 hPa Calm     88% 0.0 mm 0.00 W/m2 CLR
05:44 7.3 °C 5.5 °C 1036.8 hPa Calm     88% 0.0 mm 0.00 W/m2 CLR
05:48 7.4 °C 5.6 °C 1036.7 hPa Calm     88% 0.0 mm 0.00 W/m2 CLR
05:54 7.3 °C 5.5 °C 1036.9 hPa Calm     88% 0.0 mm 0.00 W/m2 CLR
05:59 7.1 °C 5.3 °C 1036.9 hPa Calm     88% 0.0 mm 0.00 W/m2 CLR
06:04 7.0 °C 5.2 °C 1036.9 hPa Calm     88% 0.0 mm 0.00 W/m2 CLR
06:09 6.9 °C 5.1 °C 1036.9 hPa Calm     88% 0.0 mm 0.00 W/m2 CLR
06:13 6.9 °C 5.1 °C 1037.0 hPa Calm     88% 0.0 mm 0.00 W/m2 CLR
06:18 6.9 °C 5.1 °C 1037.0 hPa SE 1.9 km/h   88% 0.0 mm 0.00 W/m2 CLR
06:24 7.0 °C 5.2 °C 1037.1 hPa SE 1.9 km/h   88% 0.0 mm 0.00 W/m2 CLR
06:29 7.0 °C 5.2 °C 1037.1 hPa Calm     88% 0.0 mm 0.00 W/m2 CLR
06:34 7.1 °C 5.2 °C 1037.0 hPa Calm     88% 0.0 mm 0.00 W/m2 CLR
06:39 7.1 °C 5.2 °C 1037.0 hPa Calm     88% 0.0 mm 0.00 W/m2 CLR
06:43 7.1 °C 5.2 °C 1037.0 hPa Calm     88% 0.0 mm 0.00 W/m2 CLR
06:49 7.2 °C 5.3 °C 1037.0 hPa SE 1.9 km/h 0.2 km/h 88% 0.0 mm 0.00 W/m2 CLR
06:54 7.3 °C 5.7 °C 1037.0 hPa SE 3.7 km/h 0.6 km/h 89% 0.0 mm 0.00 W/m2 CLR
06:59 7.4 °C 5.6 °C 1037.0 hPa SE 3.7 km/h 0.5 km/h 88% 0.0 mm 0.00 W/m2 CLR
07:03 7.3 °C 5.5 °C 1037.0 hPa SE 3.7 km/h 0.3 km/h 88% 0.0 mm 0.00 W/m2 CLR
07:07 7.5 °C 5.7 °C 1037.1 hPa Calm     88% 0.0 mm 0.00 W/m2 CLR
07:14 7.5 °C 5.7 °C 1037.1 hPa Calm     88% 0.0 mm 0.00 W/m2 CLR
07:19 7.6 °C 5.7 °C 1037.0 hPa Calm     88% 0.0 mm 0.00 W/m2 CLR
07:23 7.6 °C 5.6 °C 1037.1 hPa Calm     87% 0.0 mm 0.00 W/m2 CLR
07:28 7.7 °C 5.7 °C 1037.1 hPa Calm     87% 0.0 mm 0.00 W/m2 CLR
07:33 7.7 °C 5.7 °C 1037.1 hPa Calm     87% 0.0 mm 5.00 W/m2 OVC
07:39 7.7 °C 5.7 °C 1037.1 hPa Calm     87% 0.0 mm 7.00 W/m2 OVC
07:44 7.7 °C 5.5 °C 1037.2 hPa Calm     86% 0.0 mm 11.00 W/m2 OVC
07:48 7.6 °C 5.4 °C 1037.3 hPa SSE 4.8 km/h 0.3 km/h 86% 0.0 mm 12.00 W/m2 OVC
07:53 7.4 °C 5.2 °C 1037.2 hPa SSE 5.6 km/h 0.8 km/h 86% 0.0 mm 16.00 W/m2 OVC
07:59 7.4 °C 5.4 °C 1037.2 hPa South 5.6 km/h 1.1 km/h 87% 0.0 mm 23.00 W/m2 OVC
08:04 7.5 °C 5.5 °C 1037.3 hPa South 5.6 km/h 0.6 km/h 87% 0.0 mm 32.00 W/m2 OVC
08:08 7.6 °C 5.6 °C 1037.3 hPa South 1.9 km/h   87% 0.2 mm 40.00 W/m2 RA
08:13 7.7 °C 5.7 °C 1037.3 hPa Calm     87% 0.2 mm 51.00 W/m2 RA
08:19 8.0 °C 5.9 °C 1037.4 hPa Calm     87% 0.2 mm 60.00 W/m2
08:24 8.2 °C 6.3 °C 1037.4 hPa Calm     88% 0.2 mm 65.00 W/m2
08:29 8.6 °C 6.7 °C 1037.6 hPa Calm     88% 0.2 mm 72.00 W/m2 OVC
08:33 8.8 °C 6.7 °C 1037.5 hPa Calm     87% 0.2 mm 81.00 W/m2 OVC
08:39 8.9 °C 6.9 °C 1037.7 hPa Calm     87% 0.2 mm 111.00 W/m2 BKN
08:44 9.1 °C 7.1 °C 1037.6 hPa Calm     87% 0.2 mm 125.00 W/m2 SCT
08:49 9.2 °C 7.0 °C 1037.6 hPa Calm     86% 0.2 mm 141.00 W/m2 CLR
08:54 9.3 °C 7.1 °C 1037.7 hPa Calm     86% 0.2 mm 156.00 W/m2 CLR
08:59 9.5 °C 7.3 °C 1037.7 hPa South 3.2 km/h   86% 0.2 mm 171.00 W/m2 CLR
09:04 9.7 °C 7.4 °C 1037.7 hPa South 5.6 km/h 1.6 km/h 86% 0.2 mm 183.00 W/m2 CLR
09:09 9.8 °C 7.6 °C 1037.7 hPa South 5.6 km/h 2.9 km/h 86% 0.2 mm 193.00 W/m2 CLR
09:14 10.1 °C 7.8 °C 1037.7 hPa South 5.6 km/h 2.9 km/h 86% 0.2 mm 202.00 W/m2 CLR
09:19 10.3 °C 8.1 °C 1037.8 hPa South 5.6 km/h 2.9 km/h 86% 0.2 mm 188.00 W/m2 CLR
09:24 10.5 °C 8.1 °C 1037.9 hPa South 5.6 km/h 1.9 km/h 85% 0.0 mm 192.00 W/m2 CLR
09:29 10.8 °C 8.3 °C 1037.9 hPa South 4.8 km/h 1.4 km/h 85% 0.0 mm 225.00 W/m2 CLR
09:34 10.9 °C 8.3 °C 1037.9 hPa South 5.6 km/h 2.1 km/h 84% 0.0 mm 255.00 W/m2 CLR
09:39 11.2 °C 8.6 °C 1038.0 hPa South 6.4 km/h 3.7 km/h 84% 0.0 mm 267.00 W/m2 CLR
09:44 11.3 °C 8.7 °C 1038.0 hPa South 6.4 km/h 4.2 km/h 84% 0.0 mm 279.00 W/m2 CLR
09:49 11.6 °C 8.8 °C 1038.1 hPa South 6.4 km/h 3.7 km/h 83% 0.0 mm 292.00 W/m2 CLR
09:53 11.8 °C 8.8 °C 1038.0 hPa South 5.6 km/h 2.9 km/h 82% 0.0 mm 299.00 W/m2 CLR
09:59 12.1 °C 8.9 °C 1038.0 hPa South 5.6 km/h 2.3 km/h 81% 0.0 mm 316.00 W/m2 CLR
10:04 12.3 °C 9.2 °C 1038.0 hPa South 5.6 km/h 1.9 km/h 81% 0.0 mm 327.00 W/m2 CLR
10:07 12.4 °C 9.1 °C 1038.2 hPa South 5.6 km/h 1.9 km/h 80% 0.0 mm 336.00 W/m2 CLR
10:14 12.7 °C 9.0 °C 1038.3 hPa SSW 4.8 km/h 1.6 km/h 78% 0.0 mm 343.00 W/m2 CLR
10:18 12.8 °C 8.9 °C 1038.4 hPa SSW 5.6 km/h 1.3 km/h 77% 0.0 mm 359.00 W/m2 CLR
10:24 13.2 °C 8.8 °C 1038.3 hPa SSW 6.4 km/h 1.6 km/h 75% 0.0 mm 371.00 W/m2 CLR
10:28 13.3 °C 8.6 °C 1038.3 hPa SSW 5.6 km/h 1.9 km/h 73% 0.0 mm 380.00 W/m2 CLR
10:34 13.5 °C 8.8 °C 1038.2 hPa SSW 5.6 km/h 2.3 km/h 73% 0.0 mm 390.00 W/m2 CLR
10:38 13.5 °C 8.3 °C 1038.4 hPa WSW 7.4 km/h 2.9 km/h 71% 0.0 mm 403.00 W/m2 CLR
10:44 13.4 °C 8.5 °C 1038.4 hPa WSW 7.4 km/h 2.9 km/h 72% 0.0 mm 422.00 W/m2 CLR
10:48 13.7 °C 8.3 °C 1038.4 hPa WSW 7.4 km/h 2.6 km/h 70% 0.0 mm 427.00 W/m2 CLR
10:54 13.8 °C 7.9 °C 1038.4 hPa SW 5.6 km/h 2.1 km/h 68% 0.0 mm 399.00 W/m2 CLR
10:59 14.0 °C 7.7 °C 1038.5 hPa SSW 5.6 km/h 2.6 km/h 66% 0.0 mm 443.00 W/m2 CLR
11:03 14.1 °C 7.6 °C 1038.4 hPa SSW 5.6 km/h 2.7 km/h 65% 0.0 mm 450.00 W/m2 CLR
11:09 14.3 °C 7.6 °C 1038.4 hPa SSW 6.4 km/h 2.9 km/h 64% 0.0 mm 461.00 W/m2 CLR
11:14 14.4 °C 7.7 °C 1038.4 hPa SSW 6.4 km/h 2.7 km/h 64% 0.0 mm 473.00 W/m2 CLR
11:18 14.4 °C 7.9 °C 1038.5 hPa South 7.4 km/h 3.1 km/h 65% 0.0 mm 483.00 W/m2 CLR
11:24 14.3 °C 7.3 °C 1038.6 hPa South 7.4 km/h 3.5 km/h 63% 0.0 mm 480.00 W/m2 CLR
11:29 14.6 °C 7.8 °C 1038.6 hPa South 5.6 km/h 2.1 km/h 64% 0.0 mm 504.00 W/m2 CLR
11:34 14.9 °C 7.7 °C 1038.6 hPa SSE 6.4 km/h 2.1 km/h 62% 0.0 mm 489.00 W/m2 CLR
11:38 14.8 °C 7.1 °C 1038.6 hPa ESE 5.6 km/h 3.9 km/h 60% 0.0 mm 513.00 W/m2 CLR
11:44 14.7 °C 7.0 °C 1038.6 hPa SSE 7.4 km/h 4.8 km/h 60% 0.0 mm 548.00 W/m2 CLR
11:49 14.7 °C 7.1 °C 1038.6 hPa SSE 7.4 km/h 3.5 km/h 60% 0.0 mm 536.00 W/m2 CLR
11:53 14.8 °C 7.3 °C 1038.6 hPa SSE 5.6 km/h 2.1 km/h 61% 0.0 mm 466.00 W/m2 CLR
11:59 15.1 °C 7.1 °C 1038.6 hPa SSE 6.4 km/h 1.9 km/h 59% 0.0 mm 573.00 W/m2 CLR
12:03 14.9 °C 6.7 °C 1038.4 hPa SSW 6.4 km/h 2.6 km/h 58% 0.0 mm 548.00 W/m2 CLR
12:08 14.7 °C 7.3 °C 1038.5 hPa SW 9.7 km/h 4.2 km/h 61% 0.0 mm 552.00 W/m2 CLR
12:14 14.7 °C 7.3 °C 1038.6 hPa West 9.3 km/h 4.7 km/h 61% 0.0 mm 563.00 W/m2 CLR
12:18 14.7 °C 7.4 °C 1038.5 hPa West 9.3 km/h 4.2 km/h 62% 0.0 mm 512.00 W/m2 CLR
12:24 14.8 °C 6.9 °C 1038.6 hPa West 9.3 km/h 2.6 km/h 59% 0.0 mm 508.00 W/m2 CLR
12:29 15.1 °C 7.3 °C 1038.7 hPa West 5.6 km/h 1.3 km/h 60% 0.0 mm 501.00 W/m2 CLR
12:33 15.4 °C 7.7 °C 1038.7 hPa SSW 5.6 km/h 1.8 km/h 60% 0.0 mm 490.00 W/m2 CLR
12:39 15.6 °C 7.4 °C 1038.6 hPa SSE 9.7 km/h 2.3 km/h 58% 0.0 mm 504.00 W/m2 CLR
12:43 15.6 °C 7.1 °C 1038.6 hPa SE 9.3 km/h 3.7 km/h 57% 0.0 mm 533.00 W/m2 CLR
12:48 15.6 °C 7.1 °C 1038.5 hPa SE 9.3 km/h 4.2 km/h 57% 0.0 mm 527.00 W/m2 CLR
12:53 15.3 °C 6.8 °C 1038.6 hPa SE 7.4 km/h 4.2 km/h 57% 0.0 mm 153.00 W/m2 CLR
12:58 15.2 °C 6.9 °C 1038.7 hPa SE 7.4 km/h 4.5 km/h 58% 0.0 mm 167.00 W/m2 SCT
13:03 14.9 °C 7.2 °C 1038.5 hPa SE 5.6 km/h 3.4 km/h 60% 0.0 mm 128.00 W/m2 BKN
13:08 14.9 °C 7.2 °C 1038.5 hPa SE 5.6 km/h 1.9 km/h 60% 0.0 mm 244.00 W/m2 BKN
13:14 15.1 °C 6.7 °C 1038.5 hPa SE 5.6 km/h 1.3 km/h 57% 0.0 mm 631.00 W/m2 SCT
13:18 15.3 °C 6.3 °C 1038.5 hPa SW 8.0 km/h 2.3 km/h 55% 0.0 mm 629.00 W/m2 CLR
13:23 15.4 °C 6.4 °C 1038.5 hPa SW 7.4 km/h 2.7 km/h 55% 0.0 mm 162.00 W/m2 CLR
13:27 15.6 °C 6.8 °C 1038.4 hPa SW 7.4 km/h 2.4 km/h 56% 0.0 mm 647.00 W/m2 CLR
13:33 15.7 °C 6.9 °C 1038.4 hPa SW 7.4 km/h 2.6 km/h 56% 0.0 mm 654.00 W/m2 CLR
13:38 15.8 °C 6.2 °C 1038.5 hPa SW 8.0 km/h 1.4 km/h 53% 0.0 mm 689.00 W/m2 CLR
13:43 15.8 °C 6.8 °C 1038.4 hPa SW 5.6 km/h 2.7 km/h 55% 0.0 mm 638.00 W/m2 CLR
13:48 16.1 °C 7.6 °C 1038.3 hPa SSW 6.4 km/h 2.7 km/h 57% 0.0 mm 568.00 W/m2 CLR
13:54 16.2 °C 7.1 °C 1038.3 hPa South 8.0 km/h 3.7 km/h 55% 0.0 mm 529.00 W/m2 CLR
13:58 16.2 °C 6.8 °C 1038.3 hPa SSE 8.0 km/h 3.7 km/h 54% 0.0 mm 531.00 W/m2 CLR
14:03 16.1 °C 6.7 °C 1038.2 hPa South 7.4 km/h 3.9 km/h 54% 0.0 mm 557.00 W/m2 CLR
14:09 16.2 °C 7.4 °C 1038.2 hPa SSW 7.4 km/h 2.7 km/h 56% 0.0 mm 561.00 W/m2 CLR
14:13 16.3 °C 5.9 °C 1038.1 hPa SSE 7.4 km/h 2.9 km/h 50% 0.0 mm 594.00 W/m2 CLR
14:18 16.2 °C 6.3 °C 1038.1 hPa SSE 8.0 km/h 2.9 km/h 52% 0.0 mm 631.00 W/m2 CLR
14:24 16.2 °C 5.8 °C 1038.0 hPa SSE 11.3 km/h 5.1 km/h 50% 0.0 mm 598.00 W/m2 CLR
14:28 16.1 °C 5.9 °C 1038.0 hPa SSE 13.0 km/h 7.6 km/h 51% 0.0 mm 568.00 W/m2 CLR
14:34 15.8 °C 5.7 °C 1037.9 hPa SSE 13.0 km/h 8.8 km/h 51% 0.0 mm 612.00 W/m2 CLR
14:39 16.1 °C 5.9 °C 1037.7 hPa SSW 13.0 km/h 8.4 km/h 51% 0.0 mm 601.00 W/m2 CLR
14:43 16.2 °C 5.2 °C 1037.7 hPa SW 9.3 km/h 6.4 km/h 48% 0.0 mm 601.00 W/m2 CLR
14:48 16.4 °C 6.2 °C 1037.7 hPa SSE 9.7 km/h 6.0 km/h 51% 0.0 mm 557.00 W/m2 CLR
14:53 16.4 °C 5.7 °C 1037.6 hPa South 9.3 km/h 5.1 km/h 49% 0.0 mm 174.00 W/m2 CLR
14:58 16.3 °C 5.6 °C 1037.5 hPa South 9.3 km/h 4.8 km/h 49% 0.0 mm 519.00 W/m2 CLR
15:03 16.1 °C 5.9 °C 1037.5 hPa SSE 9.3 km/h 4.8 km/h 51% 0.0 mm 446.00 W/m2 FEW
15:09 15.7 °C 6.1 °C 1037.3 hPa SSE 8.0 km/h 5.6 km/h 53% 0.0 mm 513.00 W/m2 CLR
15:13 15.6 °C 6.1 °C 1037.3 hPa SSE 7.4 km/h 5.8 km/h 53% 0.0 mm 271.00 W/m2 FEW
15:18 15.6 °C 6.0 °C 1037.4 hPa SSE 8.0 km/h 3.7 km/h 53% 0.0 mm 160.00 W/m2 SCT
15:24 15.3 °C 6.0 °C 1037.3 hPa SSE 7.4 km/h 2.1 km/h 54% 0.0 mm 169.00 W/m2 BKN
15:28 15.3 °C 6.1 °C 1037.2 hPa SSE 7.4 km/h 2.6 km/h 54% 0.0 mm 473.00 W/m2 BKN
15:34 15.6 °C 5.7 °C 1037.2 hPa SE 5.6 km/h 2.6 km/h 52% 0.0 mm 541.00 W/m2 SCT
15:39 16.0 °C 6.2 °C 1037.3 hPa ESE 6.4 km/h 1.6 km/h 52% 0.0 mm 478.00 W/m2 CLR
15:43 16.2 °C 6.1 °C 1037.3 hPa ESE 5.6 km/h 1.3 km/h 51% 0.0 mm 471.00 W/m2 CLR
15:49 16.4 °C 6.2 °C 1037.2 hPa SSE 9.7 km/h 1.9 km/h 51% 0.0 mm 446.00 W/m2 CLR
15:53 16.5 °C 6.1 °C 1037.0 hPa SSE 11.3 km/h 4.0 km/h 50% 0.0 mm 466.00 W/m2 CLR
15:58 16.4 °C 5.7 °C 1037.1 hPa SSE 11.1 km/h 4.7 km/h 49% 0.0 mm 469.00 W/m2 CLR
16:03 16.3 °C 5.8 °C 1037.0 hPa SSE 11.1 km/h 5.6 km/h 50% 0.0 mm 489.00 W/m2 CLR
16:09 16.3 °C 5.6 °C 1037.0 hPa South 11.1 km/h 5.0 km/h 49% 0.0 mm 434.00 W/m2 CLR
16:14 16.3 °C 5.6 °C 1036.7 hPa SSW 8.0 km/h 4.7 km/h 49% 0.0 mm 381.00 W/m2 CLR
16:18 16.3 °C 6.1 °C 1036.6 hPa SSE 7.4 km/h 5.1 km/h 51% 0.0 mm 424.00 W/m2 CLR
16:24 16.3 °C 5.6 °C 1036.5 hPa SSE 7.4 km/h 3.7 km/h 49% 0.0 mm 378.00 W/m2 CLR
16:28 16.3 °C 5.6 °C 1036.6 hPa ESE 8.0 km/h 4.0 km/h 49% 0.0 mm 471.00 W/m2 CLR
16:33 16.2 °C 5.5 °C 1036.4 hPa SSE 14.8 km/h 5.8 km/h 49% 0.0 mm 471.00 W/m2 CLR
16:38 16.1 °C 5.6 °C 1036.4 hPa ESE 14.8 km/h 6.9 km/h 50% 0.0 mm 378.00 W/m2 CLR
16:43 16.0 °C 4.7 °C 1036.4 hPa SSE 14.8 km/h 6.9 km/h 47% 0.0 mm 367.00 W/m2 CLR
16:49 15.9 °C 4.9 °C 1036.4 hPa SSE 9.3 km/h 5.3 km/h 48% 0.0 mm 325.00 W/m2 FEW
16:54 16.0 °C 5.3 °C 1036.4 hPa SSE 5.6 km/h 2.9 km/h 49% 0.0 mm 155.00 W/m2 SCT
16:58 16.1 °C 5.1 °C 1036.4 hPa SSE 5.6 km/h 2.6 km/h 48% 0.0 mm 394.00 W/m2 SCT
17:03 16.1 °C 5.9 °C 1036.3 hPa SSE 11.3 km/h 1.8 km/h 51% 0.0 mm 350.00 W/m2 SCT
17:08 16.2 °C 6.3 °C 1036.4 hPa SSE 13.0 km/h 4.8 km/h 52% 0.0 mm 246.00 W/m2 FEW
17:13 16.1 °C 5.9 °C 1036.4 hPa SSE 13.0 km/h 7.9 km/h 51% 0.0 mm 357.00 W/m2 FEW
17:19 16.1 °C 5.9 °C 1036.4 hPa SSE 11.1 km/h 7.7 km/h 51% 0.0 mm 283.00 W/m2 FEW
17:23 15.9 °C 5.2 °C 1036.2 hPa South 9.3 km/h 6.6 km/h 49% 0.0 mm 193.00 W/m2 CLR
17:28 16.1 °C 5.6 °C 1036.3 hPa South 7.4 km/h 4.5 km/h 50% 0.0 mm 278.00 W/m2 FEW
17:33 16.3 °C 6.4 °C 1036.2 hPa SSW 7.4 km/h 3.7 km/h 52% 0.0 mm 279.00 W/m2 FEW
17:39 16.3 °C 5.6 °C 1036.3 hPa SSE 8.0 km/h 4.3 km/h 49% 0.0 mm 229.00 W/m2 FEW
17:43 15.9 °C 5.8 °C 1036.4 hPa SSE 9.7 km/h 5.8 km/h 51% 0.0 mm 158.00 W/m2 SCT
17:48 15.8 °C 5.7 °C 1036.4 hPa SSW 9.3 km/h 6.4 km/h 51% 0.0 mm 111.00 W/m2 SCT
17:53 15.8 °C 5.7 °C 1036.3 hPa SSW 9.3 km/h 6.0 km/h 51% 0.0 mm 62.00 W/m2 BKN
17:57 15.8 °C 5.7 °C 1036.3 hPa SSW 9.3 km/h 5.1 km/h 51% 0.0 mm 105.00 W/m2 BKN
18:03 15.7 °C 6.2 °C 1036.3 hPa SSW 7.4 km/h 3.7 km/h 53% 0.0 mm 44.00 W/m2 BKN
18:08 15.6 °C 6.3 °C 1036.2 hPa SSW 5.6 km/h 2.6 km/h 54% 0.0 mm 40.00 W/m2 BKN
18:14 15.4 °C 5.6 °C 1036.0 hPa SSW 5.6 km/h   52% 0.0 mm 90.00 W/m2 BKN
18:17 15.5 °C 5.9 °C 1036.1 hPa SSW 3.2 km/h 0.2 km/h 53% 0.0 mm 116.00 W/m2 BKN
18:23 15.4 °C 5.9 °C 1036.1 hPa SSW 6.4 km/h 2.6 km/h 53% 0.0 mm 83.00 W/m2 BKN
18:29 15.4 °C 5.6 °C 1036.2 hPa SSW 6.4 km/h 3.2 km/h 52% 0.0 mm 95.00 W/m2 BKN
18:34 15.4 °C 6.1 °C 1036.1 hPa SSW 5.6 km/h 3.5 km/h 54% 0.0 mm 84.00 W/m2 BKN
18:38 15.3 °C 6.3 °C 1036.0 hPa SSW 5.6 km/h 3.2 km/h 55% 0.0 mm 76.00 W/m2 BKN
18:43 15.3 °C 6.6 °C 1036.0 hPa SSW 5.6 km/h 2.3 km/h 56% 0.0 mm 63.00 W/m2 BKN
18:48 15.2 °C 6.7 °C 1036.2 hPa South 5.6 km/h 1.9 km/h 57% 0.0 mm 53.00 W/m2 BKN
18:53 15.0 °C 7.1 °C 1036.2 hPa South 5.6 km/h 2.1 km/h 59% 0.0 mm 40.00 W/m2 BKN
18:55 15.0 °C 7.1 °C 1036.2 hPa South 5.6 km/h 1.9 km/h 59% 0.0 mm 39.00 W/m2 BKN
19:03 14.8 °C 6.8 °C 1036.2 hPa South 5.6 km/h 2.1 km/h 59% 0.0 mm 25.00 W/m2 BKN
19:07 14.7 °C 6.8 °C 1036.3 hPa South 3.7 km/h 1.6 km/h 59% 0.0 mm 21.00 W/m2 BKN
19:13 14.6 °C 7.1 °C 1036.3 hPa South 3.7 km/h 1.1 km/h 61% 0.0 mm 16.00 W/m2 BKN
19:18 14.4 °C 7.2 °C 1036.3 hPa South 3.7 km/h 1.6 km/h 62% 0.0 mm 11.00 W/m2 BKN
19:24 14.1 °C 7.1 °C 1036.4 hPa South 3.7 km/h 0.8 km/h 63% 0.0 mm 7.00 W/m2 BKN
19:29 13.8 °C 7.1 °C 1036.4 hPa South 3.7 km/h 0.3 km/h 64% 0.0 mm 5.00 W/m2 OVC
19:33 13.7 °C 7.2 °C 1036.4 hPa South 1.9 km/h   65% 0.0 mm 0.00 W/m2 CLR
19:38 13.6 °C 7.1 °C 1036.3 hPa Calm     65% 0.0 mm 0.00 W/m2 CLR
19:43 13.4 °C 6.9 °C 1036.3 hPa Calm     65% 0.0 mm 0.00 W/m2 CLR
19:49 13.2 °C 6.8 °C 1036.3 hPa South 3.7 km/h 0.3 km/h 65% 0.0 mm 0.00 W/m2 CLR
19:54 13.1 °C 6.8 °C 1036.3 hPa South 3.7 km/h 0.3 km/h 66% 0.0 mm 0.00 W/m2 CLR
19:58 13.0 °C 6.8 °C 1036.3 hPa South 3.7 km/h 0.3 km/h 66% 0.0 mm 0.00 W/m2 CLR
20:03 12.7 °C 6.9 °C 1036.4 hPa South 3.7 km/h 0.5 km/h 68% 0.0 mm 0.00 W/m2 CLR
20:09 12.5 °C 6.9 °C 1036.4 hPa South 3.7 km/h 0.5 km/h 69% 0.0 mm 0.00 W/m2 CLR
20:14 12.4 °C 6.8 °C 1036.3 hPa Calm     69% 0.0 mm 0.00 W/m2 CLR
20:18 12.3 °C 6.8 °C 1036.4 hPa Calm     69% 0.0 mm 0.00 W/m2 CLR
20:23 12.2 °C 6.8 °C 1036.2 hPa South 3.7 km/h 0.8 km/h 70% 0.0 mm 0.00 W/m2 CLR
20:28 12.1 °C 6.7 °C 1036.2 hPa South 3.7 km/h 1.3 km/h 70% 0.0 mm 0.00 W/m2 CLR
20:34 11.9 °C 6.8 °C 1036.0 hPa South 3.7 km/h 1.4 km/h 71% 0.0 mm 0.00 W/m2 CLR
20:38 11.8 °C 6.9 °C 1036.0 hPa South 3.7 km/h 1.0 km/h 72% 0.0 mm 0.00 W/m2 CLR
20:43 11.7 °C 6.8 °C 1036.0 hPa South 3.7 km/h 1.6 km/h 72% 0.0 mm 0.00 W/m2 CLR
20:48 11.6 °C 6.9 °C 1036.1 hPa South 3.7 km/h 1.8 km/h 73% 0.0 mm 0.00 W/m2 CLR
20:53 11.4 °C 6.7 °C 1036.0 hPa South 3.7 km/h 1.9 km/h 73% 0.0 mm 0.00 W/m2 CLR
20:59 11.3 °C 6.8 °C 1036.1 hPa South 3.7 km/h 1.9 km/h 74% 0.0 mm 0.00 W/m2 CLR
21:03 11.1 °C 6.8 °C 1036.4 hPa South 3.7 km/h 1.1 km/h 75% 0.0 mm 0.00 W/m2 CLR
21:09 10.9 °C 6.6 °C 1036.3 hPa South 3.7 km/h 1.1 km/h 75% 0.0 mm 0.00 W/m2 CLR
21:13 10.9 °C 6.6 °C 1036.3 hPa South 1.9 km/h 0.5 km/h 75% 0.0 mm 0.00 W/m2 CLR
21:18 10.8 °C 6.8 °C 1036.3 hPa South 3.7 km/h 1.1 km/h 76% 0.0 mm 0.00 W/m2 CLR
21:23 10.8 °C 6.7 °C 1036.1 hPa South 5.6 km/h 1.6 km/h 76% 0.0 mm 0.00 W/m2 CLR
21:27 10.8 °C 6.6 °C 1036.1 hPa South 5.6 km/h 2.7 km/h 75% 0.0 mm 0.00 W/m2 CLR
Juneau County Weather